createdAt,value
2019-05-07T00:01:46.550Z,8.67
2019-05-07T00:04:15.289Z,8.93
2019-05-07T00:06:44.180Z,9.33
2019-05-07T00:09:14.733Z,7.87
2019-05-07T00:11:43.672Z,8.53
2019-05-07T00:14:12.719Z,8.13
2019-05-07T00:16:43.078Z,8.37
2019-05-07T00:19:13.035Z,8.63
2019-05-07T00:21:42.526Z,9.10
2019-05-07T00:24:13.175Z,9.20
2019-05-07T00:26:43.069Z,8.53
2019-05-07T00:29:12.939Z,8.60
2019-05-07T00:31:42.234Z,9.50
2019-05-07T00:34:12.627Z,9.83
2019-05-07T00:36:47.290Z,10.03
2019-05-07T00:39:35.138Z,11.73
2019-05-07T00:42:13.935Z,11.07
2019-05-07T00:45:16.902Z,10.77
2019-05-07T00:47:35.305Z,12.00
2019-05-07T00:50:09.105Z,11.53
2019-05-07T00:52:37.916Z,11.67
2019-05-07T00:55:06.781Z,13.13
2019-05-07T00:57:35.495Z,12.50
2019-05-07T01:00:05.390Z,12.63
2019-05-07T01:02:34.407Z,13.87
2019-05-07T01:05:03.746Z,14.17
2019-05-07T01:07:32.637Z,13.50
2019-05-07T01:10:02.199Z,13.95
2019-05-07T01:12:32.857Z,13.50
2019-05-07T01:15:02.883Z,13.50
2019-05-07T01:17:33.555Z,13.50
2019-05-07T01:20:03.029Z,14.53
2019-05-07T01:22:33.044Z,14.20
2019-05-07T01:25:02.401Z,13.73
2019-05-07T01:27:32.167Z,13.60
2019-05-07T01:30:02.511Z,13.90
2019-05-07T01:32:56.923Z,13.93
2019-05-07T01:35:45.176Z,15.05
2019-05-07T01:38:15.325Z,13.85
2019-05-07T01:40:44.069Z,14.13
2019-05-07T01:43:13.102Z,13.87
2019-05-07T01:45:49.557Z,14.43
2019-05-07T01:48:16.956Z,13.93
2019-05-07T01:50:45.724Z,14.47
2019-05-07T01:53:14.473Z,14.27
2019-05-07T01:55:43.408Z,14.47
2019-05-07T01:58:12.505Z,13.80
2019-05-07T02:00:42.405Z,14.98
2019-05-07T02:03:23.058Z,16.07
2019-05-07T02:05:59.104Z,15.93
2019-05-07T02:08:45.748Z,15.60
2019-05-07T02:11:16.561Z,15.00
2019-05-07T02:13:45.708Z,16.53
2019-05-07T02:16:14.517Z,15.58
2019-05-07T02:18:43.231Z,17.73
2019-05-07T02:21:12.897Z,16.73
2019-05-07T02:23:42.550Z,18.67
2019-05-07T02:26:13.395Z,17.60
2019-05-07T02:28:42.641Z,18.67
2019-05-07T02:31:14.805Z,17.83
2019-05-07T02:33:43.333Z,18.70
2019-05-07T02:36:14.253Z,19.00
2019-05-07T02:38:48.654Z,19.53
2019-05-07T02:41:23.282Z,18.20
2019-05-07T02:43:53.686Z,20.43
2019-05-07T02:46:35.159Z,18.62
2019-05-07T02:49:07.280Z,20.80
2019-05-07T02:51:43.613Z,21.97
2019-05-07T02:54:24.446Z,21.40
2019-05-07T02:56:53.540Z,21.42
2019-05-07T02:59:23.301Z,21.23
2019-05-07T03:01:53.805Z,20.13
2019-05-07T03:04:25.087Z,19.53
2019-05-07T03:06:54.290Z,19.25
2019-05-07T03:09:23.422Z,18.93
2019-05-07T03:11:52.979Z,16.97
2019-05-07T03:14:23.320Z,16.63
2019-05-07T03:16:53.554Z,17.50
2019-05-07T03:19:24.153Z,16.50
2019-05-07T03:21:54.314Z,15.80
2019-05-07T03:24:43.902Z,15.60
2019-05-07T03:27:14.126Z,15.67
2019-05-07T03:29:46.145Z,15.87
2019-05-07T03:32:38.174Z,15.75
2019-05-07T03:35:27.335Z,15.73
2019-05-07T03:37:54.788Z,14.60
2019-05-07T03:40:23.729Z,14.70
2019-05-07T03:42:53.430Z,14.38
2019-05-07T03:45:43.308Z,14.10
2019-05-07T03:48:16.362Z,14.23
2019-05-07T03:50:45.476Z,14.30
2019-05-07T03:53:14.671Z,13.97
2019-05-07T03:55:44.553Z,14.03
2019-05-07T03:58:14.690Z,14.07
2019-05-07T04:00:44.665Z,14.57
2019-05-07T04:03:18.742Z,14.98
2019-05-07T04:05:44.201Z,15.60
2019-05-07T04:08:13.541Z,16.20
2019-05-07T04:10:44.350Z,16.63
2019-05-07T04:13:13.836Z,17.00
2019-05-07T04:15:43.869Z,16.57
2019-05-07T04:18:13.532Z,16.47
2019-05-07T04:20:43.469Z,17.95
2019-05-07T04:23:13.894Z,17.13
2019-05-07T04:25:53.016Z,16.33
2019-05-07T04:28:46.612Z,16.73
2019-05-07T04:31:15.309Z,17.97
2019-05-07T04:33:44.291Z,17.77
2019-05-07T04:36:34.112Z,17.30
2019-05-07T04:39:04.983Z,17.23
2019-05-07T04:41:33.745Z,18.67
2019-05-07T04:44:03.638Z,19.43
2019-05-07T04:46:53.318Z,17.87
2019-05-07T04:49:23.857Z,18.73
2019-05-07T04:52:11.350Z,18.33
2019-05-07T04:54:38.105Z,20.35
2019-05-07T04:57:12.744Z,18.67
2019-05-07T04:59:42.816Z,19.43
2019-05-07T05:02:17.647Z,17.67
2019-05-07T05:04:46.445Z,17.00
2019-05-07T05:07:15.246Z,16.50
2019-05-07T05:09:44.056Z,17.37
2019-05-07T05:12:13.236Z,17.40
2019-05-07T05:14:43.502Z,17.07
2019-05-07T05:17:13.050Z,17.37
2019-05-07T05:19:44.440Z,17.10
2019-05-07T05:22:22.689Z,17.87
2019-05-07T05:25:09.360Z,16.35
2019-05-07T05:27:38.164Z,17.90
2019-05-07T05:30:09.301Z,17.23
2019-05-07T05:32:38.024Z,17.80
2019-05-07T05:35:08.465Z,16.17
2019-05-07T05:37:37.548Z,16.73
2019-05-07T05:40:08.919Z,18.73
2019-05-07T05:42:43.448Z,17.27
2019-05-07T05:45:30.285Z,18.07
2019-05-07T05:48:04.543Z,16.37
2019-05-07T05:50:33.107Z,16.75
2019-05-07T05:53:17.845Z,14.85
2019-05-07T05:55:47.049Z,16.20
2019-05-07T05:58:26.746Z,14.60
2019-05-07T06:01:08.869Z,14.70
2019-05-07T06:03:55.233Z,13.90
2019-05-07T06:06:32.740Z,13.13
2019-05-07T06:09:13.558Z,12.33
2019-05-07T06:11:57.655Z,11.47
2019-05-07T06:14:34.466Z,10.82
2019-05-07T06:17:25.752Z,11.50
2019-05-07T06:20:03.868Z,10.87
2019-05-07T06:22:52.756Z,10.00
2019-05-07T06:25:24.824Z,7.70
2019-05-07T06:27:53.005Z,7.60
2019-05-07T06:30:22.725Z,7.90
2019-05-07T06:32:52.365Z,7.40
2019-05-07T06:35:22.961Z,8.15
2019-05-07T06:37:52.257Z,7.30
2019-05-07T06:40:32.176Z,6.47
2019-05-07T06:43:21.603Z,6.25
2019-05-07T06:45:52.386Z,6.07
2019-05-07T06:48:34.780Z,5.63
2019-05-07T06:50:57.837Z,6.27
2019-05-07T06:53:28.852Z,6.72
2019-05-07T06:55:58.888Z,5.93
2019-05-07T06:58:34.417Z,6.73
2019-05-07T07:01:14.656Z,7.60
2019-05-07T07:04:02.841Z,7.83
2019-05-07T07:06:37.858Z,6.07
2019-05-07T07:09:25.860Z,6.13
2019-05-07T07:11:58.444Z,6.47
2019-05-07T07:14:27.234Z,5.33
2019-05-07T07:16:56.015Z,5.17
2019-05-07T07:19:24.762Z,4.90
2019-05-07T07:21:53.592Z,4.83
2019-05-07T07:24:22.400Z,4.40
2019-05-07T07:26:52.835Z,5.20
2019-05-07T07:29:24.239Z,5.60
2019-05-07T07:31:56.697Z,5.60
2019-05-07T07:34:26.907Z,4.83
2019-05-07T07:37:06.040Z,5.07
2019-05-07T07:39:32.569Z,4.77
2019-05-07T07:42:03.231Z,5.23
2019-05-07T07:44:32.983Z,5.20
2019-05-07T07:47:02.482Z,6.43
2019-05-07T07:49:32.967Z,5.50
2019-05-07T07:52:03.137Z,5.77
2019-05-07T07:54:32.289Z,5.33
2019-05-07T07:57:12.479Z,4.90
2019-05-07T07:59:53.427Z,5.00
2019-05-07T08:02:33.171Z,5.50
2019-05-07T08:05:02.169Z,5.70
2019-05-07T08:07:33.097Z,5.45
2019-05-07T08:10:02.631Z,4.70
2019-05-07T08:12:32.488Z,4.40
2019-05-07T08:15:14.590Z,4.13
2019-05-07T08:26:10.185Z,4.20
2019-05-07T08:28:38.925Z,4.50
2019-05-07T08:31:33.434Z,4.60
2019-05-07T08:34:14.267Z,4.60
2019-05-07T08:36:43.137Z,4.70
2019-05-07T08:39:12.977Z,4.27
2019-05-07T08:41:42.293Z,4.13
2019-05-07T08:44:18.359Z,4.72
2019-05-07T08:46:54.676Z,4.43
2019-05-07T08:49:35.892Z,4.10
2019-05-07T08:52:03.060Z,3.37
2019-05-07T08:54:32.130Z,3.97
2019-05-07T08:57:02.903Z,4.27
2019-05-07T08:59:32.925Z,3.63
2019-05-07T09:02:03.044Z,4.40
2019-05-07T09:04:32.886Z,4.33
2019-05-07T09:07:02.844Z,4.45
2019-05-07T09:09:32.668Z,4.27
2019-05-07T09:12:03.018Z,4.60
2019-05-07T09:14:32.673Z,4.60
2019-05-07T09:17:03.301Z,4.33
2019-05-07T09:19:46.272Z,4.47
2019-05-07T09:22:03.875Z,5.00
2019-05-07T09:24:33.488Z,4.50
2019-05-07T09:27:13.828Z,4.10
2019-05-07T09:29:51.947Z,3.93
2019-05-07T09:32:28.984Z,4.40
2019-05-07T09:34:58.661Z,4.20
2019-05-07T09:37:28.102Z,3.47
2019-05-07T09:39:56.918Z,3.77
2019-05-07T09:42:25.892Z,4.23
2019-05-07T09:44:54.640Z,4.20
2019-05-07T09:47:23.628Z,4.00
2019-05-07T09:50:03.932Z,4.13
2019-05-07T09:52:23.128Z,4.43
2019-05-07T09:54:52.497Z,5.10
2019-05-07T09:57:28.329Z,5.35
2019-05-07T09:59:53.040Z,5.28
2019-05-07T10:02:22.885Z,5.23
2019-05-07T10:04:52.832Z,5.10
2019-05-07T10:07:22.477Z,6.50
2019-05-07T10:09:52.312Z,8.43
2019-05-07T10:12:32.823Z,9.37
2019-05-07T10:15:03.075Z,8.78
2019-05-07T10:17:39.532Z,8.83
2019-05-07T10:20:21.114Z,8.23
2019-05-07T10:22:42.713Z,8.93
2019-05-07T10:25:12.219Z,7.57
2019-05-07T10:27:41.914Z,7.90
2019-05-07T10:30:12.941Z,7.20
2019-05-07T10:32:42.699Z,5.90
2019-05-07T10:35:13.332Z,6.23
2019-05-07T10:37:42.499Z,5.20
2019-05-07T10:40:13.586Z,5.60
2019-05-07T10:42:45.773Z,5.43
2019-05-07T10:45:34.121Z,7.78
2019-05-07T10:48:13.593Z,7.13
2019-05-07T10:50:44.220Z,6.67
2019-05-07T10:53:13.289Z,7.12
2019-05-07T10:55:45.474Z,7.47
2019-05-07T10:58:12.605Z,7.20
2019-05-07T11:00:42.175Z,6.83
2019-05-07T11:03:12.664Z,5.73
2019-05-07T11:05:42.072Z,5.20
2019-05-07T11:08:11.011Z,5.80
2019-05-07T11:10:41.897Z,5.50
2019-05-07T11:13:12.639Z,4.97
2019-05-07T11:15:43.144Z,5.27
2019-05-07T11:18:16.858Z,5.67
2019-05-07T11:20:50.275Z,5.10
2019-05-07T11:23:16.461Z,5.53
2019-05-07T11:25:45.363Z,6.10
2019-05-07T11:28:14.145Z,5.80
2019-05-07T11:30:43.654Z,5.43
2019-05-07T11:33:12.984Z,5.50
2019-05-07T11:35:42.303Z,5.83
2019-05-07T11:38:20.527Z,5.90
2019-05-07T11:40:42.705Z,5.97
2019-05-07T11:43:27.864Z,5.87
2019-05-07T11:46:13.388Z,5.90
2019-05-07T11:48:51.383Z,5.93
2019-05-07T11:51:26.237Z,6.20
2019-05-07T11:54:09.747Z,6.10
2019-05-07T11:56:38.808Z,5.73
2019-05-07T11:59:07.732Z,5.87
2019-05-07T12:01:46.697Z,6.10
2019-05-07T12:04:08.558Z,5.70
2019-05-07T12:06:37.398Z,5.77
2019-05-07T12:09:07.994Z,6.10
2019-05-07T12:11:36.765Z,6.10
2019-05-07T12:14:06.077Z,6.63
2019-05-07T12:16:34.881Z,6.83
2019-05-07T12:19:03.729Z,6.60
2019-05-07T12:21:32.856Z,6.33
2019-05-07T12:24:02.241Z,7.37
2019-05-07T12:26:33.254Z,5.67
2019-05-07T12:29:01.993Z,6.22
2019-05-07T12:31:52.018Z,5.83
2019-05-07T12:34:27.322Z,5.80
2019-05-07T12:36:56.074Z,6.22
2019-05-07T12:39:24.896Z,6.43
2019-05-07T12:41:53.709Z,5.73
2019-05-07T12:44:22.550Z,6.23
2019-05-07T12:46:52.436Z,5.90
2019-05-07T12:49:22.128Z,6.03
2019-05-07T12:51:56.985Z,5.83
2019-05-07T12:54:44.569Z,5.77
2019-05-07T12:57:13.364Z,5.70
2019-05-07T12:59:42.639Z,5.43
2019-05-07T13:02:38.113Z,5.10
2019-05-07T13:05:02.969Z,4.75
2019-05-07T13:07:47.361Z,4.90
2019-05-07T13:10:16.232Z,4.93
2019-05-07T13:12:44.982Z,4.40
2019-05-07T13:15:23.922Z,4.60
2019-05-07T13:17:44.595Z,4.30
2019-05-07T13:20:14.017Z,3.93
2019-05-07T13:22:42.872Z,4.20
2019-05-07T13:25:12.465Z,4.03
2019-05-07T13:27:42.940Z,3.70
2019-05-07T13:30:12.066Z,4.00
2019-05-07T13:32:44.544Z,4.40
2019-05-07T13:35:12.630Z,4.10
2019-05-07T13:37:47.593Z,3.80
2019-05-07T13:40:34.249Z,4.20
2019-05-07T13:43:27.294Z,4.10
2019-05-07T13:46:02.525Z,4.47
2019-05-07T13:48:31.754Z,4.10
2019-05-07T13:51:01.807Z,4.20
2019-05-07T13:53:32.274Z,4.10
2019-05-07T13:56:02.307Z,4.00
2019-05-07T13:58:32.929Z,4.10
2019-05-07T14:01:27.257Z,3.40
2019-05-07T14:03:56.337Z,3.30
2019-05-07T14:06:42.645Z,3.40
2019-05-07T14:09:24.377Z,3.40
2019-05-07T14:11:53.766Z,3.37
2019-05-07T14:14:22.848Z,3.43
2019-05-07T14:16:53.068Z,3.53
2019-05-07T14:19:22.644Z,3.53
2019-05-07T14:21:52.492Z,3.80
2019-05-07T14:24:22.360Z,3.40
2019-05-07T14:26:52.802Z,4.07
2019-05-07T14:29:24.403Z,3.60
2019-05-07T14:32:03.372Z,3.83
2019-05-07T14:34:35.417Z,3.47
2019-05-07T14:37:09.898Z,3.63
2019-05-07T14:39:38.717Z,4.40
2019-05-07T14:42:09.846Z,4.27
2019-05-07T14:44:48.783Z,4.20
2019-05-07T14:47:19.108Z,3.83
2019-05-07T14:49:48.823Z,4.97
2019-05-07T14:52:29.044Z,4.40
2019-05-07T14:54:48.777Z,4.90
2019-05-07T14:57:17.519Z,5.03
2019-05-07T14:59:46.367Z,4.93
2019-05-07T15:02:15.587Z,4.72
2019-05-07T15:04:44.485Z,4.40
2019-05-07T15:07:13.303Z,4.80
2019-05-07T15:09:42.582Z,4.67
2019-05-07T15:12:14.652Z,5.10
2019-05-07T15:14:42.293Z,4.62
2019-05-07T15:17:22.463Z,4.67
2019-05-07T15:19:52.128Z,4.80
2019-05-07T15:22:49.405Z,4.30
2019-05-07T15:25:35.945Z,4.77
2019-05-07T15:28:04.861Z,4.60
2019-05-07T15:30:42.718Z,4.45
2019-05-07T15:33:12.758Z,4.17
2019-05-07T15:35:42.555Z,4.10
2019-05-07T15:38:11.732Z,4.27
2019-05-07T15:40:42.298Z,4.20
2019-05-07T15:43:12.997Z,4.10
2019-05-07T15:45:42.728Z,3.67
2019-05-07T15:48:12.699Z,4.47
2019-05-07T15:50:42.887Z,3.90
2019-05-07T15:53:17.646Z,4.30
2019-05-07T15:55:46.460Z,4.07
2019-05-07T15:58:15.601Z,3.80
2019-05-07T16:00:45.070Z,3.70
2019-05-07T16:03:19.244Z,4.20
2019-05-07T16:05:48.093Z,3.80
2019-05-07T16:08:18.305Z,4.12
2019-05-07T16:10:47.201Z,4.43
2019-05-07T16:13:22.394Z,4.00
2019-05-07T16:15:52.907Z,4.50
2019-05-07T16:18:26.173Z,4.62
2019-05-07T16:20:55.200Z,5.50
2019-05-07T16:23:24.112Z,4.87
2019-05-07T16:25:53.302Z,5.13
2019-05-07T16:28:22.317Z,5.27
2019-05-07T16:30:52.131Z,4.87
2019-05-07T16:33:21.058Z,5.07
2019-05-07T16:35:49.832Z,4.40
2019-05-07T16:38:18.635Z,4.87
2019-05-07T16:40:47.664Z,5.10
2019-05-07T16:43:16.465Z,5.07
2019-05-07T16:45:45.205Z,4.60
2019-05-07T16:48:14.393Z,5.67
2019-05-07T16:50:43.139Z,4.60
2019-05-07T16:53:20.319Z,4.87
2019-05-07T16:55:43.322Z,5.20
2019-05-07T16:58:23.492Z,5.00
2019-05-07T17:00:56.033Z,5.10
2019-05-07T17:03:31.868Z,4.60
2019-05-07T17:06:01.797Z,5.10
2019-05-07T17:08:36.219Z,5.00
2019-05-07T17:11:05.039Z,4.80
2019-05-07T17:13:33.873Z,4.77
2019-05-07T17:16:03.370Z,4.83
2019-05-07T17:18:32.797Z,5.00
2019-05-07T17:21:02.282Z,5.00
2019-05-07T17:23:43.311Z,5.03
2019-05-07T17:26:01.596Z,5.07
2019-05-07T17:28:31.953Z,4.50
2019-05-07T17:31:03.096Z,4.67
2019-05-07T17:33:32.378Z,4.73
2019-05-07T17:36:04.338Z,4.67
2019-05-07T17:38:33.341Z,4.50
2019-05-07T17:41:10.875Z,4.87
2019-05-07T17:43:33.131Z,4.05
2019-05-07T17:46:02.844Z,4.43
2019-05-07T17:48:32.895Z,4.63
2019-05-07T17:51:23.872Z,4.63
2019-05-07T17:53:59.737Z,5.13
2019-05-07T17:56:24.435Z,4.63
2019-05-07T17:58:53.161Z,4.90
2019-05-07T18:01:27.848Z,4.80
2019-05-07T18:03:56.652Z,4.70
2019-05-07T18:06:25.397Z,4.40
2019-05-07T18:08:54.129Z,4.67
2019-05-07T18:11:24.323Z,4.70
2019-05-07T18:13:53.462Z,4.70
2019-05-07T18:16:28.914Z,4.58
2019-05-07T18:18:58.168Z,4.53
2019-05-07T18:21:27.106Z,4.80
2019-05-07T18:23:56.292Z,5.00
2019-05-07T18:26:30.357Z,4.90
2019-05-07T18:28:55.701Z,5.67
2019-05-07T18:31:45.739Z,4.90
2019-05-07T18:34:14.668Z,4.83
2019-05-07T18:36:43.523Z,5.05
2019-05-07T18:39:12.324Z,4.87
2019-05-07T18:41:41.778Z,5.23
2019-05-07T18:44:13.496Z,5.20
2019-05-07T18:46:41.222Z,4.90
2019-05-07T18:49:12.632Z,5.00
2019-05-07T18:51:42.669Z,5.03
2019-05-07T18:54:20.224Z,4.97
2019-05-07T18:56:42.348Z,5.07
2019-05-07T18:59:11.843Z,5.97
2019-05-07T19:01:42.320Z,5.10
2019-05-07T19:04:12.887Z,5.20
2019-05-07T19:06:42.534Z,5.57
2019-05-07T19:09:11.666Z,5.80
2019-05-07T19:11:42.650Z,5.92
2019-05-07T19:14:13.259Z,5.40
2019-05-07T19:16:43.065Z,5.27
2019-05-07T19:19:12.595Z,5.27
2019-05-07T19:21:42.315Z,5.50
2019-05-07T19:24:11.507Z,5.73
2019-05-07T19:26:42.092Z,5.67
2019-05-07T19:29:12.429Z,6.03
2019-05-07T19:31:41.938Z,5.73
2019-05-07T19:34:12.315Z,5.78
2019-05-07T19:36:42.436Z,5.97
2019-05-07T19:39:12.651Z,7.10
2019-05-07T19:41:42.970Z,6.63
2019-05-07T19:44:12.688Z,6.80
2019-05-07T19:46:42.245Z,6.80
2019-05-07T19:49:11.281Z,6.57
2019-05-07T19:51:39.998Z,6.67
2019-05-07T19:54:08.981Z,6.90
2019-05-07T19:56:38.092Z,6.50
2019-05-07T19:59:07.237Z,7.12
2019-05-07T20:01:44.126Z,6.83
2019-05-07T20:04:13.374Z,7.08
2019-05-07T20:06:42.934Z,6.83
2019-05-07T20:09:15.647Z,6.83
2019-05-07T20:11:47.018Z,6.47
2019-05-07T20:14:16.071Z,6.57
2019-05-07T20:16:44.860Z,6.43
2019-05-07T20:19:13.711Z,6.23
2019-05-07T20:21:42.465Z,6.70
2019-05-07T20:24:12.471Z,7.27
2019-05-07T20:26:43.067Z,6.97
2019-05-07T20:29:12.772Z,6.77
2019-05-07T20:31:42.435Z,7.17
2019-05-07T20:34:13.059Z,7.10
2019-05-07T20:36:42.837Z,6.35
2019-05-07T20:39:12.897Z,6.40
2019-05-07T20:41:42.954Z,6.87
2019-05-07T20:44:12.152Z,6.83
2019-05-07T20:46:42.141Z,7.57
2019-05-07T20:49:13.058Z,6.97
2019-05-07T20:51:42.533Z,6.97
2019-05-07T20:54:19.177Z,7.50
2019-05-07T20:56:54.331Z,7.60
2019-05-07T20:59:23.241Z,7.00
2019-05-07T21:01:52.659Z,7.10
2019-05-07T21:04:22.238Z,7.25
2019-05-07T21:06:52.494Z,8.13
2019-05-07T21:09:22.181Z,7.37
2019-05-07T21:11:51.632Z,7.60
2019-05-07T21:14:22.731Z,8.60
2019-05-07T21:16:51.944Z,10.20
2019-05-07T21:19:22.330Z,8.83
2019-05-07T21:21:51.335Z,11.00
2019-05-07T21:24:22.476Z,10.20
2019-05-07T21:26:52.905Z,8.90
2019-05-07T21:29:21.306Z,11.60
2019-05-07T21:31:52.297Z,12.73
2019-05-07T21:34:22.818Z,12.33
2019-05-07T21:36:52.403Z,10.53
2019-05-07T21:39:22.336Z,11.10
2019-05-07T21:41:51.979Z,9.57
2019-05-07T21:44:22.670Z,9.45
2019-05-07T21:46:52.469Z,8.83
2019-05-07T21:49:22.867Z,9.30
2019-05-07T21:51:52.254Z,8.50
2019-05-07T21:54:56.712Z,9.90
2019-05-07T21:57:33.768Z,9.70
2019-05-07T22:00:33.738Z,9.57
2019-05-07T22:03:05.016Z,8.90
2019-05-07T22:05:33.886Z,9.75
2019-05-07T22:08:02.624Z,9.30
2019-05-07T22:10:32.979Z,10.63
2019-05-07T22:13:03.282Z,9.23
2019-05-07T22:15:32.244Z,9.63
2019-05-07T22:18:02.703Z,9.13
2019-05-07T22:20:32.144Z,9.30
2019-05-07T22:23:02.819Z,10.27
2019-05-07T22:25:32.816Z,9.80
2019-05-07T22:28:04.838Z,8.80
2019-05-07T22:30:43.584Z,9.10
2019-05-07T22:33:18.745Z,9.60
2019-05-07T22:35:47.879Z,10.05
2019-05-07T22:38:16.673Z,9.00
2019-05-07T22:40:45.497Z,9.67
2019-05-07T22:43:14.703Z,9.23
2019-05-07T22:45:43.475Z,9.57
2019-05-07T22:48:12.777Z,9.90
2019-05-07T22:50:42.106Z,9.13
2019-05-07T22:53:12.630Z,9.17
2019-05-07T22:55:41.926Z,9.03
2019-05-07T22:58:21.982Z,9.13
2019-05-07T23:00:58.115Z,9.43
2019-05-07T23:03:26.945Z,9.58
2019-05-07T23:05:57.955Z,9.50
2019-05-07T23:08:26.722Z,9.87
2019-05-07T23:10:55.456Z,9.37
2019-05-07T23:13:24.190Z,8.77
2019-05-07T23:15:53.832Z,9.83
2019-05-07T23:18:22.758Z,9.40
2019-05-07T23:20:52.726Z,9.65
2019-05-07T23:23:21.869Z,9.60
2019-05-07T23:25:52.397Z,9.03
2019-05-07T23:28:22.968Z,10.17
2019-05-07T23:30:52.005Z,10.50
2019-05-07T23:33:22.620Z,8.90
2019-05-07T23:35:52.777Z,9.53
2019-05-07T23:38:22.590Z,9.13
2019-05-07T23:41:01.997Z,9.67
2019-05-07T23:43:30.422Z,9.80
2019-05-07T23:45:59.474Z,10.10
2019-05-07T23:48:28.290Z,9.37
2019-05-07T23:50:57.025Z,9.13
2019-05-07T23:53:25.764Z,10.23
2019-05-07T23:55:54.538Z,9.70
2019-05-07T23:58:23.401Z,9.50
